createdAt,value
2017-12-27T00:00:59.327Z,9.10
2017-12-27T00:03:36.992Z,12.97
2017-12-27T00:06:18.580Z,11.77
2017-12-27T00:09:07.968Z,5.80
2017-12-27T00:11:51.093Z,7.73
2017-12-27T00:14:27.646Z,8.07
2017-12-27T00:17:02.514Z,9.80
2017-12-27T00:19:40.486Z,12.07
2017-12-27T00:22:16.857Z,10.63
2017-12-27T00:24:50.644Z,10.07
2017-12-27T00:27:26.108Z,9.77
2017-12-27T00:30:00.512Z,9.63
2017-12-27T00:32:27.685Z,8.47
2017-12-27T00:34:57.795Z,8.07
2017-12-27T00:37:30.885Z,8.77
2017-12-27T00:39:58.460Z,9.33
2017-12-27T00:42:28.754Z,5.87
2017-12-27T00:44:59.338Z,6.77
2017-12-27T00:50:05.574Z,6.67
2017-12-27T00:52:35.818Z,13.37
2017-12-27T00:55:04.574Z,5.03
2017-12-27T00:57:32.167Z,5.07
2017-12-27T01:00:01.391Z,5.60
2017-12-27T01:02:30.379Z,9.73
2017-12-27T01:04:59.221Z,9.30
2017-12-27T01:07:27.815Z,7.27
2017-12-27T01:09:57.162Z,10.60
2017-12-27T01:12:25.379Z,7.07
2017-12-27T01:14:57.100Z,5.60
2017-12-27T01:17:31.966Z,4.37
2017-12-27T01:20:04.105Z,4.57
2017-12-27T01:22:32.984Z,13.60
2017-12-27T01:25:01.555Z,11.10
2017-12-27T01:27:33.572Z,9.63
2017-12-27T01:30:08.812Z,9.83
2017-12-27T01:32:36.680Z,5.83
2017-12-27T01:35:06.594Z,6.77
2017-12-27T01:37:34.301Z,10.37
2017-12-27T01:40:02.355Z,9.30
2017-12-27T01:42:35.009Z,7.90
2017-12-27T01:45:05.712Z,8.67
2017-12-27T01:47:35.506Z,9.10
2017-12-27T01:50:04.827Z,7.80
2017-12-27T01:52:34.851Z,9.17
2017-12-27T01:55:03.814Z,10.53
2017-12-27T01:57:31.506Z,9.17
2017-12-27T02:00:03.469Z,5.27
2017-12-27T02:02:34.301Z,8.97
2017-12-27T02:05:01.964Z,7.80
2017-12-27T02:07:29.857Z,11.83
2017-12-27T02:10:02.717Z,7.57
2017-12-27T02:12:30.380Z,4.63
2017-12-27T02:14:58.248Z,5.60
2017-12-27T02:17:31.029Z,3.17
2017-12-27T02:20:01.489Z,7.73
2017-12-27T02:22:31.267Z,6.03
2017-12-27T02:25:02.514Z,7.77
2017-12-27T02:27:32.636Z,7.63
2017-12-27T02:30:04.357Z,10.00
2017-12-27T02:32:34.610Z,5.47
2017-12-27T02:35:05.802Z,8.70
2017-12-27T02:37:41.513Z,6.47
2017-12-27T02:40:27.289Z,7.50
2017-12-27T02:42:58.330Z,11.37
2017-12-27T02:45:26.105Z,7.00
2017-12-27T02:47:56.019Z,8.03
2017-12-27T02:50:25.934Z,8.00
2017-12-27T02:52:55.380Z,9.30
2017-12-27T02:55:30.971Z,4.60
2017-12-27T02:57:59.349Z,9.17
2017-12-27T03:00:27.758Z,13.87
2017-12-27T03:02:56.105Z,8.47
2017-12-27T03:05:23.766Z,4.33
2017-12-27T03:07:55.230Z,10.77
2017-12-27T03:10:24.531Z,10.13
2017-12-27T03:12:53.753Z,7.27
2017-12-27T03:15:24.772Z,11.67
2017-12-27T03:17:53.763Z,9.90
2017-12-27T03:23:02.735Z,10.63
2017-12-27T03:25:37.235Z,7.87
2017-12-27T03:28:06.202Z,8.80
2017-12-27T03:30:37.339Z,7.17
2017-12-27T03:33:05.782Z,12.20
2017-12-27T03:35:34.827Z,4.53
2017-12-27T03:38:02.945Z,7.43
2017-12-27T03:40:36.422Z,8.37
2017-12-27T03:43:05.071Z,8.77
2017-12-27T03:45:33.981Z,5.83
2017-12-27T03:48:03.014Z,6.10
2017-12-27T03:50:33.628Z,6.27
2017-12-27T03:53:04.176Z,7.87
2017-12-27T03:55:37.203Z,6.13
2017-12-27T03:58:08.822Z,9.00
2017-12-27T04:00:36.485Z,4.10
2017-12-27T04:03:07.424Z,9.20
2017-12-27T04:05:37.525Z,2.97
2017-12-27T04:08:09.195Z,7.27
2017-12-27T04:13:21.017Z,5.70
2017-12-27T04:15:49.786Z,5.77
2017-12-27T04:18:18.406Z,7.10
2017-12-27T04:20:47.374Z,6.60
2017-12-27T04:23:20.043Z,8.47
2017-12-27T04:25:48.525Z,3.77
2017-12-27T04:28:30.435Z,6.77
2017-12-27T04:31:02.035Z,9.83
2017-12-27T04:33:32.409Z,4.37
2017-12-27T04:36:03.758Z,6.33
2017-12-27T04:41:18.641Z,7.20
2017-12-27T04:43:49.841Z,8.83
2017-12-27T04:46:21.759Z,6.97
2017-12-27T04:48:53.728Z,9.73
2017-12-27T04:51:24.060Z,10.50
2017-12-27T04:56:29.305Z,7.83
2017-12-27T04:58:59.641Z,7.07
2017-12-27T05:01:30.786Z,6.97
2017-12-27T05:04:00.976Z,6.57
2017-12-27T05:06:32.442Z,4.10
2017-12-27T05:09:01.230Z,6.57
2017-12-27T05:11:32.263Z,5.40
2017-12-27T05:14:02.187Z,6.20
2017-12-27T05:16:33.016Z,4.07
2017-12-27T05:19:05.804Z,10.23
2017-12-27T05:21:35.101Z,5.53
2017-12-27T05:24:11.064Z,8.00
2017-12-27T05:26:44.064Z,5.00
2017-12-27T05:29:12.830Z,7.53
2017-12-27T05:31:45.035Z,6.70
2017-12-27T05:34:35.618Z,5.13
2017-12-27T05:37:10.874Z,4.87
2017-12-27T05:39:42.422Z,6.33
2017-12-27T05:42:15.647Z,6.00
2017-12-27T05:44:50.208Z,3.10
2017-12-27T05:47:19.243Z,8.70
2017-12-27T05:49:47.273Z,5.97
2017-12-27T05:52:17.696Z,6.53
2017-12-27T05:54:48.839Z,5.10
2017-12-27T05:57:18.096Z,7.27
2017-12-27T05:59:46.727Z,5.03
2017-12-27T06:02:15.516Z,6.70
2017-12-27T06:07:29.264Z,6.00
2017-12-27T06:09:58.694Z,5.73
2017-12-27T06:12:30.433Z,5.60
2017-12-27T06:14:59.477Z,4.27
2017-12-27T06:17:29.219Z,6.17
2017-12-27T06:19:57.163Z,7.90
2017-12-27T06:22:25.757Z,6.10
2017-12-27T06:24:53.338Z,6.80
2017-12-27T06:27:21.080Z,5.17
2017-12-27T06:29:49.316Z,6.37
2017-12-27T06:32:17.980Z,3.90
2017-12-27T06:34:48.461Z,7.70
2017-12-27T06:37:16.134Z,4.70
2017-12-27T06:39:43.787Z,8.17
2017-12-27T06:42:11.450Z,6.33
2017-12-27T06:44:39.943Z,3.93
2017-12-27T06:47:08.257Z,2.80
2017-12-27T06:49:38.330Z,5.97
2017-12-27T06:52:08.757Z,4.53
2017-12-27T06:54:36.420Z,8.63
2017-12-27T06:57:06.438Z,4.37
2017-12-27T06:59:34.921Z,2.70
2017-12-27T07:02:08.842Z,4.03
2017-12-27T07:04:36.532Z,5.07
2017-12-27T07:07:10.434Z,2.73
2017-12-27T07:09:38.924Z,3.57
2017-12-27T07:12:07.365Z,3.37
2017-12-27T07:14:40.184Z,3.17
2017-12-27T07:17:09.787Z,2.60
2017-12-27T07:22:17.164Z,4.63
2017-12-27T07:24:46.495Z,5.83
2017-12-27T07:27:16.263Z,4.00
2017-12-27T07:29:43.937Z,4.43
2017-12-27T07:32:11.602Z,7.47
2017-12-27T07:34:41.714Z,4.47
2017-12-27T07:37:12.870Z,3.67
2017-12-27T07:39:40.716Z,5.10
2017-12-27T07:42:08.401Z,2.63
2017-12-27T07:44:36.398Z,2.50
2017-12-27T07:47:08.518Z,3.07
2017-12-27T07:49:37.255Z,4.17
2017-12-27T07:52:08.476Z,5.10
2017-12-27T07:54:37.461Z,3.33
2017-12-27T07:57:06.480Z,3.20
2017-12-27T07:59:37.082Z,4.60
2017-12-27T08:02:05.050Z,4.23
2017-12-27T08:04:33.626Z,3.03
2017-12-27T08:07:01.496Z,4.10
2017-12-27T08:09:34.894Z,3.10
2017-12-27T08:12:05.765Z,3.83
2017-12-27T08:14:36.454Z,5.33
2017-12-27T08:17:05.862Z,3.77
2017-12-27T08:19:36.183Z,3.67
2017-12-27T08:22:04.156Z,2.50
2017-12-27T08:24:33.657Z,2.87
2017-12-27T08:27:03.858Z,3.37
2017-12-27T08:29:39.832Z,2.37
2017-12-27T08:32:20.280Z,3.33
2017-12-27T08:34:55.019Z,2.83
2017-12-27T08:37:23.858Z,3.03
2017-12-27T08:39:52.302Z,3.23
2017-12-27T08:42:21.021Z,4.33
2017-12-27T08:44:49.406Z,3.10
2017-12-27T08:50:22.591Z,3.87
2017-12-27T08:52:52.020Z,3.37
2017-12-27T08:55:22.278Z,4.57
2017-12-27T08:57:51.617Z,2.63
2017-12-27T09:00:20.721Z,3.73
2017-12-27T09:02:48.914Z,3.70
2017-12-27T09:05:19.940Z,3.50
2017-12-27T09:07:52.270Z,3.47
2017-12-27T09:10:26.221Z,3.13
2017-12-27T09:12:59.002Z,3.57
2017-12-27T09:15:37.744Z,4.13
2017-12-27T09:18:06.528Z,3.27
2017-12-27T09:20:37.174Z,3.63
2017-12-27T09:23:08.299Z,3.67
2017-12-27T09:25:40.886Z,3.67
2017-12-27T09:28:11.429Z,3.63
2017-12-27T09:30:40.313Z,3.90
2017-12-27T09:33:17.172Z,4.47
2017-12-27T09:35:45.711Z,3.30
2017-12-27T09:38:15.896Z,4.97
2017-12-27T09:40:45.317Z,3.60
2017-12-27T09:43:14.701Z,4.37
2017-12-27T09:45:47.777Z,3.37
2017-12-27T09:48:27.329Z,6.93
2017-12-27T09:50:57.857Z,4.77
2017-12-27T09:53:27.845Z,5.07
2017-12-27T09:55:58.396Z,3.53
2017-12-27T09:58:28.002Z,3.17
2017-12-27T10:00:55.420Z,3.63
2017-12-27T10:03:23.740Z,3.50
2017-12-27T10:05:51.936Z,4.07
2017-12-27T10:08:19.420Z,4.47
2017-12-27T10:10:46.929Z,4.27
2017-12-27T10:13:15.155Z,4.27
2017-12-27T10:15:42.596Z,4.27
2017-12-27T10:18:10.049Z,3.87
2017-12-27T10:20:37.483Z,3.80
2017-12-27T10:23:05.692Z,3.10
2017-12-27T10:25:33.152Z,3.10
2017-12-27T10:28:00.589Z,3.60
2017-12-27T10:30:28.076Z,3.40
2017-12-27T10:33:02.342Z,3.93
2017-12-27T10:35:30.543Z,3.93
2017-12-27T10:37:57.976Z,4.60
2017-12-27T10:40:25.479Z,4.83
2017-12-27T10:42:52.918Z,3.40
2017-12-27T10:45:20.390Z,4.07
2017-12-27T10:47:47.864Z,6.87
2017-12-27T10:50:15.281Z,5.50
2017-12-27T10:52:42.705Z,5.10
2017-12-27T10:55:10.918Z,2.80
2017-12-27T10:57:38.392Z,2.90
2017-12-27T11:00:05.831Z,3.10
2017-12-27T11:02:33.304Z,2.60
2017-12-27T11:05:00.852Z,3.97
2017-12-27T11:07:28.257Z,5.70
2017-12-27T11:09:55.696Z,2.90
2017-12-27T11:12:23.238Z,2.80
2017-12-27T11:14:50.669Z,3.93
2017-12-27T11:17:18.145Z,3.20
2017-12-27T11:19:45.577Z,4.23
2017-12-27T11:22:13.060Z,2.73
2017-12-27T11:24:40.525Z,2.60
2017-12-27T11:27:07.958Z,2.87
2017-12-27T11:29:35.384Z,3.87
2017-12-27T11:32:03.698Z,3.20
2017-12-27T11:34:31.106Z,4.33
2017-12-27T11:36:58.622Z,2.63
2017-12-27T11:39:26.069Z,2.57
2017-12-27T11:41:53.544Z,3.43
2017-12-27T11:44:21.041Z,2.87
2017-12-27T11:46:49.281Z,4.37
2017-12-27T11:49:16.704Z,3.07
2017-12-27T11:51:44.191Z,3.00
2017-12-27T11:54:11.645Z,3.00
2017-12-27T11:56:39.091Z,3.33
2017-12-27T11:59:06.855Z,3.30
2017-12-27T12:01:34.276Z,4.33
2017-12-27T12:04:02.560Z,5.47
2017-12-27T12:06:30.006Z,5.27
2017-12-27T12:08:58.206Z,5.33
2017-12-27T12:11:25.632Z,3.90
2017-12-27T12:13:53.852Z,3.80
2017-12-27T12:16:21.305Z,5.73
2017-12-27T12:18:48.772Z,4.40
2017-12-27T12:21:16.242Z,4.80
2017-12-27T12:23:43.680Z,7.10
2017-12-27T12:26:11.152Z,6.77
2017-12-27T12:28:38.576Z,5.77
2017-12-27T12:31:06.066Z,5.20
2017-12-27T12:33:33.508Z,5.30
2017-12-27T12:36:00.942Z,5.73
2017-12-27T12:38:28.433Z,7.80
2017-12-27T12:40:55.873Z,8.10
2017-12-27T12:43:23.296Z,6.33
2017-12-27T12:45:51.511Z,5.77
2017-12-27T12:48:18.966Z,6.10
2017-12-27T12:50:46.432Z,8.43
2017-12-27T12:53:13.869Z,5.80
2017-12-27T12:55:41.296Z,5.73
2017-12-27T12:58:09.520Z,11.73
2017-12-27T13:00:36.968Z,10.23
2017-12-27T13:03:04.392Z,8.23
2017-12-27T13:05:32.631Z,7.77
2017-12-27T13:08:00.075Z,12.30
2017-12-27T13:10:27.492Z,7.57
2017-12-27T13:12:54.920Z,10.43
2017-12-27T13:15:23.860Z,9.57
2017-12-27T13:17:51.286Z,11.83
2017-12-27T13:20:19.491Z,15.63
2017-12-27T13:22:46.936Z,10.37
2017-12-27T13:25:14.360Z,10.87
2017-12-27T13:27:42.560Z,12.27
2017-12-27T13:30:09.993Z,8.60
2017-12-27T13:32:38.188Z,13.30
2017-12-27T13:35:05.692Z,10.43
2017-12-27T13:37:33.150Z,7.43
2017-12-27T13:40:00.565Z,7.60
2017-12-27T13:42:27.989Z,10.13
2017-12-27T13:44:56.927Z,9.13
2017-12-27T13:47:24.352Z,7.47
2017-12-27T13:49:52.542Z,8.80
2017-12-27T13:52:19.969Z,9.97
2017-12-27T13:54:48.160Z,10.50
2017-12-27T13:57:16.371Z,8.63
2017-12-27T13:59:43.812Z,11.40
2017-12-27T14:02:11.300Z,10.93
2017-12-27T14:04:38.741Z,12.67
2017-12-27T14:07:06.177Z,13.43
2017-12-27T14:09:33.668Z,10.30
2017-12-27T14:12:01.096Z,13.97
2017-12-27T14:14:28.596Z,12.57
2017-12-27T14:16:56.038Z,11.63
2017-12-27T14:19:23.469Z,10.70
2017-12-27T14:21:50.952Z,7.17
2017-12-27T14:24:18.400Z,6.70
2017-12-27T14:26:45.821Z,12.07
2017-12-27T14:29:14.036Z,12.40
2017-12-27T14:31:41.509Z,12.37
2017-12-27T14:34:08.956Z,9.07
2017-12-27T14:36:36.398Z,8.23
2017-12-27T14:39:03.896Z,9.70
2017-12-27T14:41:32.152Z,10.07
2017-12-27T14:43:59.594Z,11.93
2017-12-27T14:46:27.017Z,8.77
2017-12-27T14:48:55.208Z,11.00
2017-12-27T14:51:22.660Z,12.60
2017-12-27T14:53:50.153Z,8.87
2017-12-27T14:56:17.580Z,13.10
2017-12-27T14:58:45.033Z,9.40
2017-12-27T15:01:12.461Z,11.57
2017-12-27T15:03:40.660Z,17.03
2017-12-27T15:06:08.093Z,13.23
2017-12-27T15:08:35.529Z,13.93
2017-12-27T15:11:02.990Z,16.23
2017-12-27T15:13:30.432Z,11.83
2017-12-27T15:15:57.865Z,10.80
2017-12-27T15:18:25.297Z,14.13
2017-12-27T15:20:52.736Z,11.80
2017-12-27T15:23:20.953Z,10.63
2017-12-27T15:25:48.364Z,14.93
2017-12-27T15:28:15.809Z,12.07
2017-12-27T15:30:43.237Z,10.33
2017-12-27T15:33:10.680Z,15.93
2017-12-27T15:35:38.118Z,11.33
2017-12-27T15:38:05.549Z,13.77
2017-12-27T15:40:33.792Z,16.80
2017-12-27T15:43:01.244Z,14.37
2017-12-27T15:45:28.671Z,15.50
2017-12-27T15:47:56.093Z,15.47
2017-12-27T15:50:24.337Z,15.33
2017-12-27T15:52:51.788Z,15.73
2017-12-27T15:55:19.222Z,13.30
2017-12-27T15:57:46.701Z,13.17
2017-12-27T16:00:14.152Z,14.07
2017-12-27T16:02:41.583Z,15.85
2017-12-27T16:05:13.025Z,17.23
2017-12-27T16:07:42.991Z,17.87
2017-12-27T16:10:14.182Z,15.67
2017-12-27T16:12:44.973Z,15.27
2017-12-27T16:15:14.255Z,13.87
2017-12-27T16:17:41.763Z,21.53
2017-12-27T16:20:12.419Z,11.73
2017-12-27T16:22:40.768Z,14.23
2017-12-27T16:25:08.311Z,23.53
2017-12-27T16:27:37.397Z,15.87
2017-12-27T16:30:05.831Z,16.97
2017-12-27T16:32:35.663Z,19.83
2017-12-27T16:35:05.810Z,19.93
2017-12-27T16:37:34.145Z,20.60
2017-12-27T16:40:03.976Z,20.17
2017-12-27T16:42:32.049Z,34.83
2017-12-27T16:44:59.905Z,29.90
2017-12-27T16:47:28.679Z,31.40
2017-12-27T16:50:00.017Z,25.20
2017-12-27T16:52:30.360Z,27.07
2017-12-27T16:55:05.397Z,21.80
2017-12-27T16:57:36.545Z,33.17
2017-12-27T17:00:10.849Z,18.07
2017-12-27T17:02:44.553Z,15.63
2017-12-27T17:05:19.387Z,13.73
2017-12-27T17:08:06.071Z,20.53
2017-12-27T17:10:41.226Z,23.07
2017-12-27T17:13:13.499Z,26.13
2017-12-27T17:15:46.941Z,26.40
2017-12-27T17:18:16.604Z,21.57
2017-12-27T17:20:49.285Z,18.00
2017-12-27T17:23:29.848Z,34.87
2017-12-27T17:26:02.473Z,53.57
2017-12-27T17:28:32.317Z,28.87
2017-12-27T17:31:05.632Z,17.90
2017-12-27T17:33:38.734Z,23.23
2017-12-27T17:36:09.967Z,19.57
2017-12-27T17:38:39.272Z,15.53
2017-12-27T17:41:12.185Z,19.27
2017-12-27T17:43:42.560Z,19.27
2017-12-27T17:46:12.333Z,21.50
2017-12-27T17:48:47.105Z,20.53
2017-12-27T17:51:20.072Z,16.27
2017-12-27T17:56:35.813Z,19.90
2017-12-27T17:59:07.767Z,18.47
2017-12-27T18:04:17.743Z,18.40
2017-12-27T18:06:53.570Z,20.80
2017-12-27T18:09:23.986Z,22.00
2017-12-27T18:11:54.617Z,18.47
2017-12-27T18:14:25.772Z,24.00
2017-12-27T18:16:57.471Z,20.10
2017-12-27T18:19:29.622Z,18.83
2017-12-27T18:21:58.973Z,23.83
2017-12-27T18:24:32.485Z,21.93
2017-12-27T18:27:06.589Z,20.00
2017-12-27T18:29:37.924Z,20.23
2017-12-27T18:32:13.490Z,24.77
2017-12-27T18:34:42.434Z,20.70
2017-12-27T18:37:17.767Z,26.27
2017-12-27T18:39:51.878Z,32.80
2017-12-27T18:42:24.665Z,32.67
2017-12-27T18:44:56.921Z,32.70
2017-12-27T18:47:28.366Z,35.27
2017-12-27T18:50:00.051Z,29.90
2017-12-27T18:52:31.696Z,20.07
2017-12-27T18:55:04.210Z,11.20
2017-12-27T18:57:36.476Z,7.33
2017-12-27T19:00:16.082Z,3.10
2017-12-27T19:02:46.714Z,2.87
2017-12-27T19:05:18.577Z,1.87
2017-12-27T19:07:49.460Z,4.10
2017-12-27T19:10:22.332Z,2.43
2017-12-27T19:12:57.449Z,2.90
2017-12-27T19:15:32.774Z,4.53
2017-12-27T19:18:08.004Z,1.90
2017-12-27T19:20:42.276Z,2.00
2017-12-27T19:23:11.018Z,2.27
2017-12-27T19:25:40.385Z,1.73
2017-12-27T19:28:12.018Z,2.60
2017-12-27T19:30:41.340Z,2.73
2017-12-27T19:33:21.167Z,3.40
2017-12-27T19:36:14.808Z,1.97
2017-12-27T19:38:54.346Z,4.83
2017-12-27T19:41:25.211Z,2.40
2017-12-27T19:44:01.026Z,1.50
2017-12-27T19:46:39.185Z,4.73
2017-12-27T19:49:09.934Z,5.00
2017-12-27T19:51:44.785Z,1.50
2017-12-27T19:54:21.823Z,2.60
2017-12-27T19:56:55.745Z,1.67
2017-12-27T19:59:33.787Z,3.70
2017-12-27T20:02:15.066Z,3.60
2017-12-27T20:07:23.385Z,3.93
2017-12-27T20:10:00.354Z,2.30
2017-12-27T20:12:45.762Z,2.13
2017-12-27T20:15:18.445Z,1.77
2017-12-27T20:17:57.266Z,3.10
2017-12-27T20:20:30.512Z,4.00
2017-12-27T20:23:00.788Z,9.70
2017-12-27T20:25:33.896Z,1.70
2017-12-27T20:28:06.662Z,5.97
2017-12-27T20:30:48.549Z,5.30
2017-12-27T20:33:39.254Z,5.72
2017-12-27T20:36:14.045Z,3.07
2017-12-27T20:38:49.769Z,4.00
2017-12-27T20:41:25.421Z,3.60
2017-12-27T20:44:06.664Z,6.10
2017-12-27T20:46:47.637Z,5.97
2017-12-27T20:49:22.964Z,5.63
2017-12-27T20:52:11.942Z,5.40
2017-12-27T20:54:52.712Z,7.83
2017-12-27T21:00:14.391Z,8.07
2017-12-27T21:02:55.564Z,7.13
2017-12-27T21:05:28.235Z,6.60
2017-12-27T21:08:04.115Z,10.40
2017-12-27T21:10:38.809Z,9.37
2017-12-27T21:13:09.833Z,6.80
2017-12-27T21:15:40.350Z,9.00
2017-12-27T21:18:31.050Z,10.20
2017-12-27T21:21:15.637Z,6.93
2017-12-27T21:24:00.712Z,10.30
2017-12-27T21:26:42.200Z,5.53
2017-12-27T21:29:22.366Z,12.60
2017-12-27T21:31:54.829Z,12.27
2017-12-27T21:34:36.607Z,8.57
2017-12-27T21:39:56.385Z,12.30
2017-12-27T21:42:39.770Z,10.50
2017-12-27T21:45:10.987Z,6.97
2017-12-27T21:47:57.590Z,8.17
2017-12-27T21:50:30.365Z,7.33
2017-12-27T21:53:03.356Z,7.43
2017-12-27T21:55:35.212Z,12.13
2017-12-27T21:58:10.888Z,7.30
2017-12-27T22:00:45.885Z,6.57
2017-12-27T22:03:18.520Z,6.57
2017-12-27T22:05:50.970Z,7.10
2017-12-27T22:08:21.217Z,9.63
2017-12-27T22:10:50.314Z,12.27
2017-12-27T22:13:18.079Z,13.07
2017-12-27T22:15:51.830Z,10.47
2017-12-27T22:18:26.056Z,8.73
2017-12-27T22:21:10.000Z,3.97
2017-12-27T22:24:00.592Z,9.47
2017-12-27T22:26:33.547Z,8.23
2017-12-27T22:29:09.968Z,9.97
2017-12-27T22:31:45.601Z,10.27
2017-12-27T22:34:21.046Z,9.40
2017-12-27T22:36:49.606Z,11.90
2017-12-27T22:39:22.115Z,11.03
2017-12-27T22:41:52.996Z,8.07
2017-12-27T22:44:30.272Z,10.30
2017-12-27T22:47:02.249Z,10.43
2017-12-27T22:49:32.563Z,13.30
2017-12-27T22:52:07.291Z,11.93
2017-12-27T22:54:39.062Z,7.63
2017-12-27T22:57:11.635Z,10.67
2017-12-27T22:59:51.677Z,12.07
2017-12-27T23:02:31.063Z,9.87
2017-12-27T23:05:11.120Z,6.67
2017-12-27T23:07:41.960Z,13.80
2017-12-27T23:10:17.661Z,11.97
2017-12-27T23:12:48.218Z,14.63
2017-12-27T23:15:19.553Z,14.70
2017-12-27T23:17:55.904Z,20.47
2017-12-27T23:20:27.278Z,11.57
2017-12-27T23:22:56.676Z,16.77
2017-12-27T23:25:33.684Z,7.67
2017-12-27T23:33:41.062Z,11.50
2017-12-27T23:36:11.367Z,14.90
2017-12-27T23:38:47.265Z,12.23
2017-12-27T23:41:22.935Z,20.37
2017-12-27T23:43:52.928Z,11.40
2017-12-27T23:46:24.071Z,14.97
2017-12-27T23:48:54.336Z,27.37
2017-12-27T23:51:22.272Z,21.53
2017-12-27T23:53:59.663Z,12.73
2017-12-27T23:59:14.258Z,18.93
